sensor_id;sensor_type;location;lat;lon;timestamp;P1;durP1;ratioP1;P2;durP2;ratioP2
13975;SDS011;7062;49.792;9.946;2023-04-06T00:00:57;10.20;;;8.67;;
13975;SDS011;7062;49.792;9.946;2023-04-06T00:03:22;9.73;;;8.07;;
13975;SDS011;7062;49.792;9.946;2023-04-06T00:05:48;15.77;;;10.97;;
13975;SDS011;7062;49.792;9.946;2023-04-06T00:08:14;12.00;;;9.05;;
13975;SDS011;7062;49.792;9.946;2023-04-06T00:10:40;18.13;;;11.25;;
13975;SDS011;7062;49.792;9.946;2023-04-06T00:13:06;13.27;;;9.63;;
13975;SDS011;7062;49.792;9.946;2023-04-06T00:15:32;13.80;;;10.45;;
13975;SDS011;7062;49.792;9.946;2023-04-06T00:17:58;15.37;;;8.73;;
13975;SDS011;7062;49.792;9.946;2023-04-06T00:20:24;13.40;;;8.70;;
13975;SDS011;7062;49.792;9.946;2023-04-06T00:22:49;15.17;;;9.07;;
13975;SDS011;7062;49.792;9.946;2023-04-06T00:25:15;11.37;;;8.33;;
13975;SDS011;7062;49.792;9.946;2023-04-06T00:27:41;10.47;;;8.07;;
13975;SDS011;7062;49.792;9.946;2023-04-06T00:30:07;9.37;;;8.37;;
13975;SDS011;7062;49.792;9.946;2023-04-06T00:32:36;10.60;;;9.30;;
13975;SDS011;7062;49.792;9.946;2023-04-06T00:35:02;15.50;;;11.70;;
13975;SDS011;7062;49.792;9.946;2023-04-06T00:37:28;14.73;;;10.98;;
13975;SDS011;7062;49.792;9.946;2023-04-06T00:39:54;9.40;;;8.37;;
13975;SDS011;7062;49.792;9.946;2023-04-06T00:42:20;15.87;;;9.00;;
13975;SDS011;7062;49.792;9.946;2023-04-06T00:44:51;13.35;;;9.13;;
13975;SDS011;7062;49.792;9.946;2023-04-06T00:47:18;12.38;;;9.02;;
13975;SDS011;7062;49.792;9.946;2023-04-06T00:49:43;12.93;;;9.80;;
13975;SDS011;7062;49.792;9.946;2023-04-06T00:52:09;11.30;;;8.93;;
13975;SDS011;7062;49.792;9.946;2023-04-06T00:54:35;11.37;;;8.67;;
13975;SDS011;7062;49.792;9.946;2023-04-06T00:57:01;9.40;;;8.37;;
13975;SDS011;7062;49.792;9.946;2023-04-06T00:59:27;13.57;;;8.13;;
13975;SDS011;7062;49.792;9.946;2023-04-06T01:01:53;13.05;;;10.52;;
13975;SDS011;7062;49.792;9.946;2023-04-06T01:04:19;12.03;;;9.33;;
13975;SDS011;7062;49.792;9.946;2023-04-06T01:06:47;11.60;;;9.20;;
13975;SDS011;7062;49.792;9.946;2023-04-06T01:09:13;11.02;;;8.60;;
13975;SDS011;7062;49.792;9.946;2023-04-06T01:11:39;10.73;;;8.57;;
13975;SDS011;7062;49.792;9.946;2023-04-06T01:14:05;10.20;;;8.50;;
13975;SDS011;7062;49.792;9.946;2023-04-06T01:16:31;13.93;;;9.70;;
13975;SDS011;7062;49.792;9.946;2023-04-06T01:18:57;11.43;;;9.60;;
13975;SDS011;7062;49.792;9.946;2023-04-06T01:21:23;13.90;;;10.53;;
13975;SDS011;7062;49.792;9.946;2023-04-06T01:23:48;16.00;;;11.40;;
13975;SDS011;7062;49.792;9.946;2023-04-06T01:26:14;10.47;;;9.27;;
13975;SDS011;7062;49.792;9.946;2023-04-06T01:28:40;13.70;;;11.20;;
13975;SDS011;7062;49.792;9.946;2023-04-06T01:31:06;12.77;;;11.13;;
13975;SDS011;7062;49.792;9.946;2023-04-06T01:33:33;16.60;;;10.55;;
13975;SDS011;7062;49.792;9.946;2023-04-06T01:35:59;10.73;;;9.33;;
13975;SDS011;7062;49.792;9.946;2023-04-06T01:38:25;13.43;;;10.95;;
13975;SDS011;7062;49.792;9.946;2023-04-06T01:40:51;13.02;;;10.35;;
13975;SDS011;7062;49.792;9.946;2023-04-06T01:43:17;11.55;;;9.25;;
13975;SDS011;7062;49.792;9.946;2023-04-06T01:45:43;11.57;;;9.63;;
13975;SDS011;7062;49.792;9.946;2023-04-06T01:48:09;13.50;;;10.43;;
13975;SDS011;7062;49.792;9.946;2023-04-06T01:50:35;15.33;;;10.37;;
13975;SDS011;7062;49.792;9.946;2023-04-06T01:53:01;11.27;;;9.10;;
13975;SDS011;7062;49.792;9.946;2023-04-06T01:55:27;18.03;;;10.20;;
13975;SDS011;7062;49.792;9.946;2023-04-06T01:57:52;13.80;;;10.63;;
13975;SDS011;7062;49.792;9.946;2023-04-06T02:00:18;11.00;;;9.20;;
13975;SDS011;7062;49.792;9.946;2023-04-06T02:02:43;10.20;;;7.77;;
13975;SDS011;7062;49.792;9.946;2023-04-06T02:05:09;9.53;;;8.27;;
13975;SDS011;7062;49.792;9.946;2023-04-06T02:07:35;16.57;;;10.03;;
13975;SDS011;7062;49.792;9.946;2023-04-06T02:10:00;19.97;;;11.50;;
13975;SDS011;7062;49.792;9.946;2023-04-06T02:12:27;14.45;;;10.85;;
13975;SDS011;7062;49.792;9.946;2023-04-06T02:14:52;17.47;;;11.23;;
13975;SDS011;7062;49.792;9.946;2023-04-06T02:17:18;13.53;;;9.33;;
13975;SDS011;7062;49.792;9.946;2023-04-06T02:19:44;11.27;;;9.57;;
13975;SDS011;7062;49.792;9.946;2023-04-06T02:22:09;14.27;;;8.93;;
13975;SDS011;7062;49.792;9.946;2023-04-06T02:24:35;10.93;;;9.02;;
13975;SDS011;7062;49.792;9.946;2023-04-06T02:27:01;13.83;;;9.03;;
13975;SDS011;7062;49.792;9.946;2023-04-06T02:29:27;8.83;;;7.77;;
13975;SDS011;7062;49.792;9.946;2023-04-06T02:31:52;14.73;;;10.50;;
13975;SDS011;7062;49.792;9.946;2023-04-06T02:34:18;11.77;;;9.13;;
13975;SDS011;7062;49.792;9.946;2023-04-06T02:36:44;12.97;;;7.20;;
13975;SDS011;7062;49.792;9.946;2023-04-06T02:39:10;12.20;;;8.25;;
13975;SDS011;7062;49.792;9.946;2023-04-06T02:41:36;11.90;;;8.77;;
13975;SDS011;7062;49.792;9.946;2023-04-06T02:44:02;11.07;;;9.10;;
13975;SDS011;7062;49.792;9.946;2023-04-06T02:46:28;10.73;;;9.32;;
13975;SDS011;7062;49.792;9.946;2023-04-06T02:48:54;11.37;;;9.33;;
13975;SDS011;7062;49.792;9.946;2023-04-06T02:51:20;11.57;;;8.77;;
13975;SDS011;7062;49.792;9.946;2023-04-06T02:53:45;9.37;;;8.47;;
13975;SDS011;7062;49.792;9.946;2023-04-06T02:56:11;11.50;;;8.80;;
13975;SDS011;7062;49.792;9.946;2023-04-06T02:58:37;10.47;;;8.17;;
13975;SDS011;7062;49.792;9.946;2023-04-06T03:01:03;11.63;;;9.93;;
13975;SDS011;7062;49.792;9.946;2023-04-06T03:03:28;11.98;;;8.43;;
13975;SDS011;7062;49.792;9.946;2023-04-06T03:05:55;17.20;;;9.55;;
13975;SDS011;7062;49.792;9.946;2023-04-06T03:08:23;11.50;;;9.00;;
13975;SDS011;7062;49.792;9.946;2023-04-06T03:10:49;13.77;;;8.98;;
13975;SDS011;7062;49.792;9.946;2023-04-06T03:13:15;15.27;;;9.43;;
13975;SDS011;7062;49.792;9.946;2023-04-06T03:15:41;12.23;;;8.83;;
13975;SDS011;7062;49.792;9.946;2023-04-06T03:18:06;11.80;;;8.67;;
13975;SDS011;7062;49.792;9.946;2023-04-06T03:20:32;12.67;;;9.17;;
13975;SDS011;7062;49.792;9.946;2023-04-06T03:22:58;13.83;;;8.87;;
13975;SDS011;7062;49.792;9.946;2023-04-06T03:25:24;16.40;;;9.13;;
13975;SDS011;7062;49.792;9.946;2023-04-06T03:27:49;15.03;;;8.67;;
13975;SDS011;7062;49.792;9.946;2023-04-06T03:30:15;10.43;;;8.77;;
13975;SDS011;7062;49.792;9.946;2023-04-06T03:32:42;14.27;;;9.65;;
13975;SDS011;7062;49.792;9.946;2023-04-06T03:35:08;12.73;;;9.38;;
13975;SDS011;7062;49.792;9.946;2023-04-06T03:37:34;13.63;;;10.03;;
13975;SDS011;7062;49.792;9.946;2023-04-06T03:40:00;11.07;;;9.97;;
13975;SDS011;7062;49.792;9.946;2023-04-06T03:42:26;12.30;;;9.27;;
13975;SDS011;7062;49.792;9.946;2023-04-06T03:44:52;15.70;;;9.90;;
13975;SDS011;7062;49.792;9.946;2023-04-06T03:47:17;13.67;;;10.97;;
13975;SDS011;7062;49.792;9.946;2023-04-06T03:49:43;13.53;;;9.97;;
13975;SDS011;7062;49.792;9.946;2023-04-06T03:52:09;12.00;;;10.80;;
13975;SDS011;7062;49.792;9.946;2023-04-06T03:54:34;13.23;;;10.83;;
13975;SDS011;7062;49.792;9.946;2023-04-06T03:57:00;11.93;;;9.73;;
13975;SDS011;7062;49.792;9.946;2023-04-06T03:59:26;14.90;;;10.97;;
13975;SDS011;7062;49.792;9.946;2023-04-06T04:01:51;13.17;;;10.40;;
13975;SDS011;7062;49.792;9.946;2023-04-06T04:04:17;13.00;;;10.33;;
13975;SDS011;7062;49.792;9.946;2023-04-06T04:06:43;11.00;;;9.10;;
13975;SDS011;7062;49.792;9.946;2023-04-06T04:09:08;11.47;;;9.47;;
13975;SDS011;7062;49.792;9.946;2023-04-06T04:11:34;10.40;;;9.13;;
13975;SDS011;7062;49.792;9.946;2023-04-06T04:14:00;9.43;;;8.50;;
13975;SDS011;7062;49.792;9.946;2023-04-06T04:16:25;13.33;;;10.20;;
13975;SDS011;7062;49.792;9.946;2023-04-06T04:18:51;11.37;;;10.27;;
13975;SDS011;7062;49.792;9.946;2023-04-06T04:21:17;13.50;;;10.60;;
13975;SDS011;7062;49.792;9.946;2023-04-06T04:23:42;13.43;;;10.23;;
13975;SDS011;7062;49.792;9.946;2023-04-06T04:26:08;10.87;;;9.77;;
13975;SDS011;7062;49.792;9.946;2023-04-06T04:28:33;12.07;;;9.23;;
13975;SDS011;7062;49.792;9.946;2023-04-06T04:30:59;13.70;;;10.77;;
13975;SDS011;7062;49.792;9.946;2023-04-06T04:33:25;16.53;;;11.33;;
13975;SDS011;7062;49.792;9.946;2023-04-06T04:35:50;13.73;;;11.10;;
13975;SDS011;7062;49.792;9.946;2023-04-06T04:38:16;12.83;;;10.23;;
13975;SDS011;7062;49.792;9.946;2023-04-06T04:40:42;13.60;;;10.87;;
13975;SDS011;7062;49.792;9.946;2023-04-06T04:43:07;11.57;;;9.90;;
13975;SDS011;7062;49.792;9.946;2023-04-06T04:45:33;11.13;;;9.80;;
13975;SDS011;7062;49.792;9.946;2023-04-06T04:47:59;17.27;;;10.53;;
13975;SDS011;7062;49.792;9.946;2023-04-06T04:50:24;12.40;;;10.60;;
13975;SDS011;7062;49.792;9.946;2023-04-06T04:52:50;12.40;;;10.67;;
13975;SDS011;7062;49.792;9.946;2023-04-06T04:55:16;12.53;;;9.53;;
13975;SDS011;7062;49.792;9.946;2023-04-06T04:57:42;12.68;;;9.93;;
13975;SDS011;7062;49.792;9.946;2023-04-06T05:00:08;17.37;;;9.67;;
13975;SDS011;7062;49.792;9.946;2023-04-06T05:02:34;13.40;;;9.98;;
13975;SDS011;7062;49.792;9.946;2023-04-06T05:05:00;11.27;;;9.48;;
13975;SDS011;7062;49.792;9.946;2023-04-06T05:07:25;16.40;;;10.93;;
13975;SDS011;7062;49.792;9.946;2023-04-06T05:09:51;16.17;;;10.87;;
13975;SDS011;7062;49.792;9.946;2023-04-06T05:12:18;12.10;;;9.90;;
13975;SDS011;7062;49.792;9.946;2023-04-06T05:14:44;17.83;;;12.80;;
13975;SDS011;7062;49.792;9.946;2023-04-06T05:17:10;12.35;;;10.77;;
13975;SDS011;7062;49.792;9.946;2023-04-06T05:19:35;15.97;;;11.60;;
13975;SDS011;7062;49.792;9.946;2023-04-06T05:22:01;13.13;;;10.47;;
13975;SDS011;7062;49.792;9.946;2023-04-06T05:24:26;12.57;;;10.27;;
13975;SDS011;7062;49.792;9.946;2023-04-06T05:26:52;15.97;;;10.67;;
13975;SDS011;7062;49.792;9.946;2023-04-06T05:29:18;12.07;;;10.40;;
13975;SDS011;7062;49.792;9.946;2023-04-06T05:31:45;12.45;;;10.10;;
13975;SDS011;7062;49.792;9.946;2023-04-06T05:34:10;15.80;;;10.40;;
13975;SDS011;7062;49.792;9.946;2023-04-06T05:36:37;11.45;;;9.35;;
13975;SDS011;7062;49.792;9.946;2023-04-06T05:39:03;17.80;;;11.40;;
13975;SDS011;7062;49.792;9.946;2023-04-06T05:41:29;15.97;;;10.63;;
13975;SDS011;7062;49.792;9.946;2023-04-06T05:43:55;12.10;;;9.90;;
13975;SDS011;7062;49.792;9.946;2023-04-06T05:46:20;14.40;;;10.73;;
13975;SDS011;7062;49.792;9.946;2023-04-06T05:48:46;15.80;;;10.93;;
13975;SDS011;7062;49.792;9.946;2023-04-06T05:51:12;12.90;;;11.27;;
13975;SDS011;7062;49.792;9.946;2023-04-06T05:53:37;13.43;;;11.83;;
13975;SDS011;7062;49.792;9.946;2023-04-06T05:56:03;20.53;;;12.90;;
13975;SDS011;7062;49.792;9.946;2023-04-06T05:58:29;22.75;;;14.18;;
13975;SDS011;7062;49.792;9.946;2023-04-06T06:00:58;14.83;;;12.27;;
13975;SDS011;7062;49.792;9.946;2023-04-06T06:03:24;13.45;;;11.77;;
13975;SDS011;7062;49.792;9.946;2023-04-06T06:05:50;13.73;;;11.23;;
13975;SDS011;7062;49.792;9.946;2023-04-06T06:08:16;18.83;;;13.07;;
13975;SDS011;7062;49.792;9.946;2023-04-06T06:10:41;15.23;;;12.63;;
13975;SDS011;7062;49.792;9.946;2023-04-06T06:13:08;19.10;;;12.65;;
13975;SDS011;7062;49.792;9.946;2023-04-06T06:15:34;15.73;;;11.90;;
13975;SDS011;7062;49.792;9.946;2023-04-06T06:17:59;19.57;;;12.17;;
13975;SDS011;7062;49.792;9.946;2023-04-06T06:20:25;15.10;;;12.33;;
13975;SDS011;7062;49.792;9.946;2023-04-06T06:22:51;17.23;;;12.40;;
13975;SDS011;7062;49.792;9.946;2023-04-06T06:25:17;15.02;;;11.80;;
13975;SDS011;7062;49.792;9.946;2023-04-06T06:27:43;13.17;;;11.57;;
13975;SDS011;7062;49.792;9.946;2023-04-06T06:30:09;12.88;;;11.57;;
13975;SDS011;7062;49.792;9.946;2023-04-06T06:32:35;13.73;;;10.87;;
13975;SDS011;7062;49.792;9.946;2023-04-06T06:35:01;14.30;;;11.77;;
13975;SDS011;7062;49.792;9.946;2023-04-06T06:37:27;12.73;;;10.98;;
13975;SDS011;7062;49.792;9.946;2023-04-06T06:39:53;15.43;;;11.20;;
13975;SDS011;7062;49.792;9.946;2023-04-06T06:42:19;13.27;;;11.17;;
13975;SDS011;7062;49.792;9.946;2023-04-06T06:44:44;14.60;;;11.77;;
13975;SDS011;7062;49.792;9.946;2023-04-06T06:47:10;13.70;;;10.77;;
13975;SDS011;7062;49.792;9.946;2023-04-06T06:49:35;13.07;;;10.83;;
13975;SDS011;7062;49.792;9.946;2023-04-06T06:52:01;16.67;;;11.33;;
13975;SDS011;7062;49.792;9.946;2023-04-06T06:54:27;17.87;;;11.53;;
13975;SDS011;7062;49.792;9.946;2023-04-06T06:56:52;11.73;;;10.53;;
13975;SDS011;7062;49.792;9.946;2023-04-06T06:59:19;13.25;;;11.00;;
13975;SDS011;7062;49.792;9.946;2023-04-06T07:01:46;12.20;;;11.00;;
13975;SDS011;7062;49.792;9.946;2023-04-06T07:04:11;12.70;;;10.77;;
13975;SDS011;7062;49.792;9.946;2023-04-06T07:06:37;15.83;;;11.37;;
13975;SDS011;7062;49.792;9.946;2023-04-06T07:09:03;13.53;;;12.07;;
13975;SDS011;7062;49.792;9.946;2023-04-06T07:11:29;15.70;;;10.47;;
13975;SDS011;7062;49.792;9.946;2023-04-06T07:13:55;17.90;;;12.82;;
13975;SDS011;7062;49.792;9.946;2023-04-06T07:16:21;11.17;;;9.70;;
13975;SDS011;7062;49.792;9.946;2023-04-06T07:18:46;10.87;;;9.70;;
13975;SDS011;7062;49.792;9.946;2023-04-06T07:21:12;13.10;;;10.83;;
13975;SDS011;7062;49.792;9.946;2023-04-06T07:23:38;13.23;;;11.87;;
13975;SDS011;7062;49.792;9.946;2023-04-06T07:26:04;13.20;;;11.60;;
13975;SDS011;7062;49.792;9.946;2023-04-06T07:28:29;13.77;;;10.50;;
13975;SDS011;7062;49.792;9.946;2023-04-06T07:30:55;12.70;;;10.45;;
13975;SDS011;7062;49.792;9.946;2023-04-06T07:33:21;17.13;;;10.60;;
13975;SDS011;7062;49.792;9.946;2023-04-06T07:35:47;11.87;;;10.63;;
13975;SDS011;7062;49.792;9.946;2023-04-06T07:38:13;19.00;;;11.27;;
13975;SDS011;7062;49.792;9.946;2023-04-06T07:40:38;13.70;;;9.97;;
13975;SDS011;7062;49.792;9.946;2023-04-06T07:43:04;10.17;;;8.83;;
13975;SDS011;7062;49.792;9.946;2023-04-06T07:45:30;12.43;;;9.80;;
13975;SDS011;7062;49.792;9.946;2023-04-06T07:47:56;12.25;;;10.10;;
13975;SDS011;7062;49.792;9.946;2023-04-06T07:50:22;11.43;;;9.73;;
13975;SDS011;7062;49.792;9.946;2023-04-06T07:52:47;12.87;;;9.37;;
13975;SDS011;7062;49.792;9.946;2023-04-06T07:55:13;9.90;;;8.20;;
13975;SDS011;7062;49.792;9.946;2023-04-06T07:57:39;11.40;;;9.10;;
13975;SDS011;7062;49.792;9.946;2023-04-06T08:00:04;12.17;;;9.73;;
13975;SDS011;7062;49.792;9.946;2023-04-06T08:02:31;10.60;;;9.23;;
13975;SDS011;7062;49.792;9.946;2023-04-06T08:04:57;9.77;;;8.53;;
13975;SDS011;7062;49.792;9.946;2023-04-06T08:07:22;19.70;;;9.47;;
13975;SDS011;7062;49.792;9.946;2023-04-06T08:09:48;13.33;;;9.23;;
13975;SDS011;7062;49.792;9.946;2023-04-06T08:12:14;14.23;;;9.83;;
13975;SDS011;7062;49.792;9.946;2023-04-06T08:14:39;10.57;;;9.47;;
13975;SDS011;7062;49.792;9.946;2023-04-06T08:17:05;12.53;;;8.80;;
13975;SDS011;7062;49.792;9.946;2023-04-06T08:19:31;8.90;;;8.07;;
13975;SDS011;7062;49.792;9.946;2023-04-06T08:21:56;8.67;;;7.60;;
13975;SDS011;7062;49.792;9.946;2023-04-06T08:24:22;8.87;;;7.97;;
13975;SDS011;7062;49.792;9.946;2023-04-06T08:26:47;8.83;;;7.93;;
13975;SDS011;7062;49.792;9.946;2023-04-06T08:29:13;8.20;;;7.17;;
13975;SDS011;7062;49.792;9.946;2023-04-06T08:31:39;10.80;;;8.33;;
13975;SDS011;7062;49.792;9.946;2023-04-06T08:34:05;10.60;;;8.27;;
13975;SDS011;7062;49.792;9.946;2023-04-06T08:36:31;9.95;;;9.05;;
13975;SDS011;7062;49.792;9.946;2023-04-06T08:38:58;8.83;;;7.93;;
13975;SDS011;7062;49.792;9.946;2023-04-06T08:41:25;10.60;;;9.20;;
13975;SDS011;7062;49.792;9.946;2023-04-06T08:43:58;10.60;;;9.60;;
13975;SDS011;7062;49.792;9.946;2023-04-06T08:46:25;10.40;;;9.17;;
13975;SDS011;7062;49.792;9.946;2023-04-06T08:48:54;10.00;;;8.87;;
13975;SDS011;7062;49.792;9.946;2023-04-06T08:51:24;9.60;;;8.70;;
13975;SDS011;7062;49.792;9.946;2023-04-06T08:53:55;14.00;;;9.63;;
13975;SDS011;7062;49.792;9.946;2023-04-06T08:56:22;10.00;;;8.87;;
13975;SDS011;7062;49.792;9.946;2023-04-06T08:58:49;9.47;;;8.37;;
13975;SDS011;7062;49.792;9.946;2023-04-06T09:01:17;9.43;;;8.43;;
13975;SDS011;7062;49.792;9.946;2023-04-06T09:03:45;9.90;;;9.00;;
13975;SDS011;7062;49.792;9.946;2023-04-06T09:06:11;12.00;;;9.20;;
13975;SDS011;7062;49.792;9.946;2023-04-06T09:08:39;11.90;;;9.20;;
13975;SDS011;7062;49.792;9.946;2023-04-06T09:11:06;10.60;;;9.50;;
13975;SDS011;7062;49.792;9.946;2023-04-06T09:13:44;11.30;;;9.50;;
13975;SDS011;7062;49.792;9.946;2023-04-06T09:16:13;12.70;;;9.13;;
13975;SDS011;7062;49.792;9.946;2023-04-06T09:18:39;10.30;;;9.17;;
13975;SDS011;7062;49.792;9.946;2023-04-06T09:21:05;10.67;;;9.57;;
13975;SDS011;7062;49.792;9.946;2023-04-06T09:23:32;10.20;;;9.17;;
13975;SDS011;7062;49.792;9.946;2023-04-06T09:26:07;9.73;;;8.73;;
13975;SDS011;7062;49.792;9.946;2023-04-06T09:28:45;9.63;;;8.73;;
13975;SDS011;7062;49.792;9.946;2023-04-06T09:31:11;9.90;;;8.97;;
13975;SDS011;7062;49.792;9.946;2023-04-06T09:33:38;10.20;;;8.90;;
13975;SDS011;7062;49.792;9.946;2023-04-06T09:36:06;9.67;;;8.83;;
13975;SDS011;7062;49.792;9.946;2023-04-06T09:38:34;10.17;;;8.10;;
13975;SDS011;7062;49.792;9.946;2023-04-06T09:41:03;9.43;;;8.53;;
13975;SDS011;7062;49.792;9.946;2023-04-06T09:43:29;11.40;;;9.37;;
13975;SDS011;7062;49.792;9.946;2023-04-06T09:45:55;11.23;;;8.67;;
13975;SDS011;7062;49.792;9.946;2023-04-06T09:48:22;9.53;;;8.63;;
13975;SDS011;7062;49.792;9.946;2023-04-06T09:50:50;9.83;;;8.67;;
13975;SDS011;7062;49.792;9.946;2023-04-06T09:53:21;9.87;;;9.03;;
13975;SDS011;7062;49.792;9.946;2023-04-06T09:55:51;15.40;;;8.77;;
13975;SDS011;7062;49.792;9.946;2023-04-06T09:58:22;10.17;;;8.87;;
13975;SDS011;7062;49.792;9.946;2023-04-06T10:01:00;9.73;;;8.73;;
13975;SDS011;7062;49.792;9.946;2023-04-06T10:06:05;17.50;;;9.10;;
13975;SDS011;7062;49.792;9.946;2023-04-06T10:08:36;9.77;;;8.87;;
13975;SDS011;7062;49.792;9.946;2023-04-06T10:11:06;8.67;;;7.93;;
13975;SDS011;7062;49.792;9.946;2023-04-06T10:13:33;9.43;;;8.43;;
13975;SDS011;7062;49.792;9.946;2023-04-06T10:15:59;9.03;;;8.10;;
13975;SDS011;7062;49.792;9.946;2023-04-06T10:18:26;18.50;;;7.83;;
13975;SDS011;7062;49.792;9.946;2023-04-06T10:23:49;8.67;;;7.93;;
13975;SDS011;7062;49.792;9.946;2023-04-06T10:26:26;9.40;;;8.60;;
13975;SDS011;7062;49.792;9.946;2023-04-06T10:28:52;9.33;;;8.43;;
13975;SDS011;7062;49.792;9.946;2023-04-06T10:31:25;10.37;;;9.37;;
13975;SDS011;7062;49.792;9.946;2023-04-06T10:33:59;10.23;;;8.53;;
13975;SDS011;7062;49.792;9.946;2023-04-06T10:36:27;9.87;;;8.87;;
13975;SDS011;7062;49.792;9.946;2023-04-06T10:38:57;9.50;;;7.90;;
13975;SDS011;7062;49.792;9.946;2023-04-06T10:41:50;9.00;;;8.10;;
13975;SDS011;7062;49.792;9.946;2023-04-06T10:44:22;9.53;;;8.53;;
13975;SDS011;7062;49.792;9.946;2023-04-06T10:46:56;9.83;;;9.03;;
13975;SDS011;7062;49.792;9.946;2023-04-06T10:49:25;10.67;;;9.63;;
13975;SDS011;7062;49.792;9.946;2023-04-06T10:51:54;9.17;;;8.27;;
13975;SDS011;7062;49.792;9.946;2023-04-06T10:54:21;9.20;;;8.40;;
13975;SDS011;7062;49.792;9.946;2023-04-06T10:56:49;8.70;;;7.90;;
13975;SDS011;7062;49.792;9.946;2023-04-06T10:59:19;9.07;;;8.30;;
13975;SDS011;7062;49.792;9.946;2023-04-06T11:01:45;7.77;;;7.07;;
13975;SDS011;7062;49.792;9.946;2023-04-06T11:04:15;9.73;;;8.80;;
13975;SDS011;7062;49.792;9.946;2023-04-06T11:06:41;9.00;;;8.20;;
13975;SDS011;7062;49.792;9.946;2023-04-06T11:09:33;9.87;;;8.97;;
13975;SDS011;7062;49.792;9.946;2023-04-06T11:12:01;9.87;;;8.97;;
13975;SDS011;7062;49.792;9.946;2023-04-06T11:14:27;8.57;;;7.77;;
13975;SDS011;7062;49.792;9.946;2023-04-06T11:16:52;8.30;;;7.60;;
13975;SDS011;7062;49.792;9.946;2023-04-06T11:19:18;10.00;;;9.00;;
13975;SDS011;7062;49.792;9.946;2023-04-06T11:21:44;9.60;;;8.60;;
13975;SDS011;7062;49.792;9.946;2023-04-06T11:24:15;9.83;;;8.93;;
13975;SDS011;7062;49.792;9.946;2023-04-06T11:26:45;9.63;;;8.73;;
13975;SDS011;7062;49.792;9.946;2023-04-06T11:29:13;10.03;;;8.90;;
13975;SDS011;7062;49.792;9.946;2023-04-06T11:31:41;10.57;;;9.20;;
13975;SDS011;7062;49.792;9.946;2023-04-06T11:34:21;10.23;;;9.40;;
13975;SDS011;7062;49.792;9.946;2023-04-06T11:36:48;10.53;;;9.53;;
13975;SDS011;7062;49.792;9.946;2023-04-06T11:39:20;11.33;;;10.07;;
13975;SDS011;7062;49.792;9.946;2023-04-06T11:41:49;10.93;;;9.93;;
13975;SDS011;7062;49.792;9.946;2023-04-06T11:47:04;9.13;;;8.20;;
13975;SDS011;7062;49.792;9.946;2023-04-06T11:49:31;10.13;;;9.17;;
13975;SDS011;7062;49.792;9.946;2023-04-06T11:51:59;12.13;;;9.77;;
13975;SDS011;7062;49.792;9.946;2023-04-06T11:54:32;12.53;;;8.43;;
13975;SDS011;7062;49.792;9.946;2023-04-06T11:56:59;9.40;;;8.47;;
13975;SDS011;7062;49.792;9.946;2023-04-06T11:59:26;9.47;;;8.57;;
13975;SDS011;7062;49.792;9.946;2023-04-06T12:01:52;10.80;;;9.77;;
13975;SDS011;7062;49.792;9.946;2023-04-06T12:04:18;9.47;;;7.60;;
13975;SDS011;7062;49.792;9.946;2023-04-06T12:06:44;8.10;;;7.30;;
13975;SDS011;7062;49.792;9.946;2023-04-06T12:09:10;10.67;;;7.30;;
13975;SDS011;7062;49.792;9.946;2023-04-06T12:11:35;8.50;;;7.70;;
13975;SDS011;7062;49.792;9.946;2023-04-06T12:14:01;7.97;;;7.10;;
13975;SDS011;7062;49.792;9.946;2023-04-06T12:16:29;9.57;;;8.23;;
13975;SDS011;7062;49.792;9.946;2023-04-06T12:18:59;7.87;;;7.07;;
13975;SDS011;7062;49.792;9.946;2023-04-06T12:21:26;9.53;;;8.37;;
13975;SDS011;7062;49.792;9.946;2023-04-06T12:23:52;11.90;;;8.30;;
13975;SDS011;7062;49.792;9.946;2023-04-06T12:26:18;9.10;;;8.20;;
13975;SDS011;7062;49.792;9.946;2023-04-06T12:28:43;9.53;;;8.63;;
13975;SDS011;7062;49.792;9.946;2023-04-06T12:31:19;8.80;;;7.90;;
13975;SDS011;7062;49.792;9.946;2023-04-06T12:33:47;9.03;;;8.13;;
13975;SDS011;7062;49.792;9.946;2023-04-06T12:36:17;8.73;;;7.93;;
13975;SDS011;7062;49.792;9.946;2023-04-06T12:38:44;9.87;;;8.23;;
13975;SDS011;7062;49.792;9.946;2023-04-06T12:41:11;8.70;;;7.80;;
13975;SDS011;7062;49.792;9.946;2023-04-06T12:43:36;9.03;;;8.17;;
13975;SDS011;7062;49.792;9.946;2023-04-06T12:46:02;7.97;;;7.17;;
13975;SDS011;7062;49.792;9.946;2023-04-06T12:48:28;9.27;;;8.27;;
13975;SDS011;7062;49.792;9.946;2023-04-06T12:50:56;9.40;;;8.57;;
13975;SDS011;7062;49.792;9.946;2023-04-06T12:53:25;8.17;;;7.37;;
13975;SDS011;7062;49.792;9.946;2023-04-06T12:55:53;8.10;;;7.40;;
13975;SDS011;7062;49.792;9.946;2023-04-06T12:58:20;8.10;;;7.30;;
13975;SDS011;7062;49.792;9.946;2023-04-06T13:00:47;7.77;;;7.07;;
13975;SDS011;7062;49.792;9.946;2023-04-06T13:03:14;8.80;;;7.93;;
13975;SDS011;7062;49.792;9.946;2023-04-06T13:05:46;8.57;;;7.87;;
13975;SDS011;7062;49.792;9.946;2023-04-06T13:08:13;9.27;;;8.57;;
13975;SDS011;7062;49.792;9.946;2023-04-06T13:10:58;9.70;;;8.70;;
13975;SDS011;7062;49.792;9.946;2023-04-06T13:13:24;9.17;;;8.33;;
13975;SDS011;7062;49.792;9.946;2023-04-06T13:15:51;9.20;;;8.37;;
13975;SDS011;7062;49.792;9.946;2023-04-06T13:18:17;9.10;;;8.30;;
13975;SDS011;7062;49.792;9.946;2023-04-06T13:20:43;8.87;;;8.07;;
13975;SDS011;7062;49.792;9.946;2023-04-06T13:23:08;8.53;;;7.73;;
13975;SDS011;7062;49.792;9.946;2023-04-06T13:25:34;8.33;;;7.63;;
13975;SDS011;7062;49.792;9.946;2023-04-06T13:28:00;8.40;;;7.60;;
13975;SDS011;7062;49.792;9.946;2023-04-06T13:30:26;7.17;;;6.53;;
13975;SDS011;7062;49.792;9.946;2023-04-06T13:32:51;6.83;;;6.23;;
13975;SDS011;7062;49.792;9.946;2023-04-06T13:35:17;7.60;;;6.90;;
13975;SDS011;7062;49.792;9.946;2023-04-06T13:37:43;7.37;;;6.63;;
13975;SDS011;7062;49.792;9.946;2023-04-06T13:40:09;7.60;;;6.90;;
13975;SDS011;7062;49.792;9.946;2023-04-06T13:42:35;7.27;;;6.57;;
13975;SDS011;7062;49.792;9.946;2023-04-06T13:45:03;8.77;;;7.87;;
13975;SDS011;7062;49.792;9.946;2023-04-06T13:47:29;10.03;;;7.40;;
13975;SDS011;7062;49.792;9.946;2023-04-06T13:49:55;7.93;;;7.13;;
13975;SDS011;7062;49.792;9.946;2023-04-06T13:52:21;7.37;;;6.53;;
13975;SDS011;7062;49.792;9.946;2023-04-06T13:54:46;8.67;;;7.87;;
13975;SDS011;7062;49.792;9.946;2023-04-06T13:57:13;7.93;;;7.23;;
13975;SDS011;7062;49.792;9.946;2023-04-06T13:59:38;14.33;;;7.43;;
13975;SDS011;7062;49.792;9.946;2023-04-06T14:02:05;8.97;;;7.60;;
13975;SDS011;7062;49.792;9.946;2023-04-06T14:04:32;8.57;;;7.80;;
13975;SDS011;7062;49.792;9.946;2023-04-06T14:06:58;7.43;;;6.63;;
13975;SDS011;7062;49.792;9.946;2023-04-06T14:09:25;7.53;;;6.83;;
13975;SDS011;7062;49.792;9.946;2023-04-06T14:11:51;8.50;;;7.00;;
13975;SDS011;7062;49.792;9.946;2023-04-06T14:14:17;8.30;;;6.40;;
13975;SDS011;7062;49.792;9.946;2023-04-06T14:16:43;7.63;;;6.83;;
13975;SDS011;7062;49.792;9.946;2023-04-06T14:19:12;7.17;;;6.47;;
13975;SDS011;7062;49.792;9.946;2023-04-06T14:21:39;8.80;;;6.67;;
13975;SDS011;7062;49.792;9.946;2023-04-06T14:24:08;6.50;;;5.90;;
13975;SDS011;7062;49.792;9.946;2023-04-06T14:26:37;7.70;;;7.00;;
13975;SDS011;7062;49.792;9.946;2023-04-06T14:29:03;11.93;;;7.73;;
13975;SDS011;7062;49.792;9.946;2023-04-06T14:31:29;8.20;;;7.30;;
13975;SDS011;7062;49.792;9.946;2023-04-06T14:33:55;7.83;;;7.13;;
13975;SDS011;7062;49.792;9.946;2023-04-06T14:36:22;9.90;;;7.70;;
13975;SDS011;7062;49.792;9.946;2023-04-06T14:38:47;6.57;;;5.97;;
13975;SDS011;7062;49.792;9.946;2023-04-06T14:41:21;6.80;;;6.10;;
13975;SDS011;7062;49.792;9.946;2023-04-06T14:43:48;6.77;;;6.17;;
13975;SDS011;7062;49.792;9.946;2023-04-06T14:46:13;7.83;;;6.50;;
13975;SDS011;7062;49.792;9.946;2023-04-06T14:48:40;6.87;;;6.10;;
13975;SDS011;7062;49.792;9.946;2023-04-06T14:51:06;7.80;;;5.77;;
13975;SDS011;7062;49.792;9.946;2023-04-06T14:53:32;7.43;;;6.73;;